createdAt,value
2022-12-22T00:00:05.625Z,10.38
2022-12-22T00:10:25.574Z,10.21
2022-12-22T00:20:45.445Z,10.14
2022-12-22T00:31:06.266Z,9.88
2022-12-22T00:41:26.480Z,9.76
2022-12-22T00:51:46.242Z,9.71
2022-12-22T01:02:06.522Z,9.65
2022-12-22T01:12:26.749Z,9.65
2022-12-22T01:22:46.576Z,9.65
2022-12-22T01:33:06.612Z,9.66
2022-12-22T01:43:26.460Z,9.61
2022-12-22T01:53:46.339Z,9.65
2022-12-22T02:04:06.486Z,9.71
2022-12-22T02:14:30.064Z,9.65
2022-12-22T02:24:50.857Z,9.50
2022-12-22T02:35:10.878Z,9.23
2022-12-22T02:45:30.531Z,9.25
2022-12-22T02:55:50.373Z,9.30
2022-12-22T03:06:10.409Z,9.48
2022-12-22T03:16:30.319Z,9.51
2022-12-22T03:26:33.398Z,9.50
2022-12-22T03:36:34.789Z,9.56
2022-12-22T03:46:36.069Z,9.59
2022-12-22T03:56:37.418Z,9.67
2022-12-22T04:06:38.735Z,9.65
2022-12-22T04:16:40.085Z,9.67
2022-12-22T04:26:41.357Z,9.75
2022-12-22T04:36:42.751Z,9.74
2022-12-22T04:46:44.053Z,9.87
2022-12-22T04:56:45.299Z,9.85
2022-12-22T05:06:46.612Z,9.95
2022-12-22T05:16:47.932Z,9.98
2022-12-22T05:26:49.240Z,9.95
2022-12-22T05:36:50.554Z,9.89
2022-12-22T05:46:54.747Z,10.00
2022-12-22T05:56:56.003Z,9.99
2022-12-22T06:06:57.209Z,9.96
2022-12-22T06:16:58.415Z,9.96
2022-12-22T06:26:59.678Z,9.90
2022-12-22T06:37:01.044Z,9.86
2022-12-22T06:47:02.288Z,9.87
2022-12-22T06:57:03.522Z,9.96
2022-12-22T07:07:04.762Z,9.99
2022-12-22T07:17:06.008Z,10.14
2022-12-22T07:27:07.258Z,10.20
2022-12-22T07:37:08.555Z,10.34
2022-12-22T07:47:09.800Z,10.49
2022-12-22T07:57:11.114Z,10.47
2022-12-22T08:07:13.557Z,10.55
2022-12-22T08:17:14.776Z,10.69
2022-12-22T08:27:20.741Z,10.70
2022-12-22T08:37:26.962Z,10.78
2022-12-22T08:47:28.310Z,10.96
2022-12-22T08:57:29.694Z,10.91
2022-12-22T09:07:30.907Z,10.68
2022-12-22T09:17:32.185Z,10.41
2022-12-22T09:27:33.467Z,10.39
2022-12-22T09:37:34.694Z,10.45
2022-12-22T09:47:37.660Z,10.48
2022-12-22T09:57:38.937Z,10.51
2022-12-22T10:07:42.167Z,10.61
2022-12-22T10:17:43.422Z,10.52
2022-12-22T10:27:51.305Z,10.65
2022-12-22T10:37:52.776Z,10.52
2022-12-22T10:47:54.025Z,10.59
2022-12-22T10:57:57.027Z,10.51
2022-12-22T11:08:01.887Z,10.58
2022-12-22T11:18:03.164Z,10.74
2022-12-22T11:28:04.414Z,10.94
2022-12-22T11:38:05.669Z,10.87
2022-12-22T11:48:07.001Z,10.89
2022-12-22T11:58:08.260Z,10.88
2022-12-22T12:08:09.526Z,10.70
2022-12-22T12:18:10.865Z,10.48
2022-12-22T12:28:12.251Z,10.53
2022-12-22T12:38:39.407Z,10.58
2022-12-22T12:48:34.735Z,10.47
2022-12-22T12:58:39.018Z,10.42
2022-12-22T13:08:40.255Z,10.35
2022-12-22T13:18:47.474Z,10.41
2022-12-22T13:28:51.409Z,10.37
2022-12-22T13:38:52.643Z,10.34
2022-12-22T13:48:54.054Z,10.33
2022-12-22T13:58:55.352Z,10.22
2022-12-22T14:08:56.609Z,10.29
2022-12-22T14:18:59.580Z,10.29
2022-12-22T14:29:00.882Z,10.25
2022-12-22T14:39:09.162Z,10.18
2022-12-22T14:49:10.872Z,10.10
2022-12-22T14:59:12.184Z,10.22
2022-12-22T15:09:13.506Z,10.25
2022-12-22T15:19:14.788Z,10.26
2022-12-22T15:29:16.166Z,10.20
2022-12-22T15:39:17.437Z,10.10
2022-12-22T15:49:18.720Z,10.01
2022-12-22T15:59:20.006Z,10.00
2022-12-22T16:09:21.332Z,9.95
2022-12-22T16:19:22.733Z,9.88
2022-12-22T16:29:24.354Z,9.83
2022-12-22T16:39:25.665Z,9.90
2022-12-22T16:49:27.228Z,9.77
2022-12-22T16:59:29.180Z,9.62
2022-12-22T17:09:31.040Z,9.50
2022-12-22T17:19:32.258Z,9.47
2022-12-22T17:29:35.159Z,9.41
2022-12-22T17:39:38.517Z,9.41
2022-12-22T17:49:39.769Z,9.38
2022-12-22T17:59:41.009Z,9.43
2022-12-22T18:09:42.259Z,9.43
2022-12-22T18:19:43.645Z,9.61
2022-12-22T18:29:45.153Z,9.74
2022-12-22T18:39:46.416Z,9.74
2022-12-22T18:49:47.725Z,9.74
2022-12-22T18:59:49.204Z,9.81
2022-12-22T19:09:50.537Z,9.74
2022-12-22T19:19:51.870Z,9.72
2022-12-22T19:29:58.829Z,9.81
2022-12-22T19:40:04.157Z,9.77
2022-12-22T19:50:05.433Z,9.79
2022-12-22T20:00:06.817Z,9.76
2022-12-22T20:10:08.103Z,9.78
2022-12-22T20:20:09.338Z,9.82
2022-12-22T20:30:10.624Z,9.83
2022-12-22T20:40:11.867Z,9.76
2022-12-22T20:50:13.204Z,9.68
2022-12-22T21:00:14.460Z,9.72
2022-12-22T21:10:15.757Z,9.72
2022-12-22T21:20:17.020Z,9.66
2022-12-22T21:30:18.509Z,9.68
2022-12-22T21:40:19.807Z,9.63
2022-12-22T21:50:21.132Z,9.61
2022-12-22T22:00:22.438Z,9.60
2022-12-22T22:10:23.703Z,9.57
2022-12-22T22:20:24.939Z,9.56
2022-12-22T22:30:26.229Z,9.50
2022-12-22T22:40:27.508Z,9.55
2022-12-22T22:50:28.925Z,9.48
2022-12-22T23:00:30.151Z,9.45
2022-12-22T23:10:36.096Z,9.50
2022-12-22T23:20:40.698Z,9.49
2022-12-22T23:30:41.965Z,9.52
2022-12-22T23:40:58.527Z,9.55
2022-12-22T23:50:59.834Z,9.61
